Time;durP1;ratioP1;P1;durP2;ratioP2;P2;SDS_P1;SDS_P2;PMS_P1;PMS_P2;Temp;Humidity;BMP_temperature;BMP_pressure;BME280_temperature;BME280_humidity;BME280_pressure;Samples;Min_cycle;Max_cycle;Signal;HPM_P1;HPM_P2
2022/09/30 00:01:18;;;;;;;13.17;8.20;;;10.40;99.90;;;;;;5134419;27;20039;-53
2022/09/30 00:03:43;;;;;;;8.02;6.32;;;10.40;99.90;;;;;;5106486;27;20801;-52
2022/09/30 00:06:10;;;;;;;8.25;7.35;;;10.40;99.90;;;;;;5113618;28;20035;-55
2022/09/30 00:08:36;;;;;;;7.63;7.03;;;10.50;99.90;;;;;;5146100;27;20034;-55
2022/09/30 00:11:03;;;;;;;7.35;6.75;;;10.40;99.90;;;;;;5113776;28;20040;-55
2022/09/30 00:13:31;;;;;;;7.82;7.10;;;10.40;99.90;;;;;;5128649;27;20058;-56
2022/09/30 00:15:57;;;;;;;8.93;8.07;;;10.40;99.90;;;;;;5133342;27;20053;-54
2022/09/30 00:18:23;;;;;;;8.82;8.02;;;10.50;99.90;;;;;;5113252;28;20050;-53
2022/09/30 00:20:48;;;;;;;7.63;7.03;;;10.50;99.90;;;;;;5143950;27;20427;-56
2022/09/30 00:23:14;;;;;;;7.45;6.75;;;10.50;99.90;;;;;;5147708;27;20031;-54
2022/09/30 00:25:40;;;;;;;9.40;7.18;;;10.50;99.90;;;;;;5132593;27;20042;-57
2022/09/30 00:28:06;;;;;;;7.35;6.65;;;10.50;99.90;;;;;;5132601;27;20043;-54
2022/09/30 00:30:33;;;;;;;8.32;6.75;;;10.50;99.90;;;;;;5134622;27;20230;-52
2022/09/30 00:32:59;;;;;;;7.55;6.95;;;10.50;99.90;;;;;;5124858;27;20165;-56
2022/09/30 00:35:25;;;;;;;6.63;6.13;;;10.50;99.90;;;;;;5128854;27;20510;-55
2022/09/30 00:37:51;;;;;;;9.57;8.40;;;10.50;99.90;;;;;;5133036;27;20127;-53
2022/09/30 00:40:19;;;;;;;7.93;7.22;;;10.50;99.90;;;;;;5127395;27;20688;-52
2022/09/30 00:42:45;;;;;;;8.52;7.72;;;10.50;99.90;;;;;;5112092;28;20400;-53
2022/09/30 00:45:12;;;;;;;9.15;8.27;;;10.50;99.90;;;;;;5118801;27;20035;-52
2022/09/30 00:48:03;;;;;;;8.65;8.00;;;10.40;99.90;;;;;;5133314;27;20516;-54
2022/09/30 00:50:45;;;;;;;11.88;8.52;;;10.40;99.90;;;;;;5134586;27;20027;-52
2022/09/30 00:53:14;;;;;;;9.30;7.95;;;10.40;99.90;;;;;;5132279;27;20117;-55
2022/09/30 00:56:00;;;;;;;9.00;8.10;;;10.30;99.90;;;;;;5132736;27;20576;-54
2022/09/30 00:58:40;;;;;;;10.65;8.80;;;10.30;99.90;;;;;;5132675;27;20479;-55
2022/09/30 01:01:06;;;;;;;9.35;8.63;;;10.30;99.90;;;;;;5134196;27;20392;-56
2022/09/30 01:03:36;;;;;;;10.05;9.05;;;10.30;99.90;;;;;;5131855;27;20031;-52
2022/09/30 01:06:02;;;;;;;11.70;10.52;;;10.30;99.90;;;;;;5135729;27;20049;-55
2022/09/30 01:08:29;;;;;;;11.52;9.82;;;10.30;99.90;;;;;;5153781;27;20035;-54
2022/09/30 01:10:55;;;;;;;10.70;9.70;;;10.30;99.90;;;;;;5153439;27;20049;-54
2022/09/30 01:13:23;;;;;;;10.52;9.52;;;10.30;99.90;;;;;;5151162;27;20035;-53
2022/09/30 01:16:11;;;;;;;12.95;10.90;;;10.30;99.90;;;;;;5142909;27;20099;-52
2022/09/30 01:18:54;;;;;;;11.65;10.60;;;10.30;99.90;;;;;;5132243;27;20131;-53
2022/09/30 01:21:39;;;;;;;11.93;10.77;;;10.30;99.90;;;;;;5132388;27;20419;-54
2022/09/30 01:24:16;;;;;;;12.57;11.38;;;10.30;99.90;;;;;;5131922;27;20039;-55
2022/09/30 01:26:57;;;;;;;12.75;11.63;;;10.30;99.90;;;;;;5131632;27;20118;-54
2022/09/30 01:30:09;;;;;;;12.32;10.80;;;10.30;99.90;;;;;;5115785;27;20032;-52
2022/09/30 01:33:00;;;;;;;13.95;10.45;;;10.30;99.90;;;;;;5116225;27;20115;-56
2022/09/30 01:35:44;;;;;;;13.15;10.80;;;10.30;99.90;;;;;;5092042;27;20055;-53
2022/09/30 01:38:28;;;;;;;11.25;10.35;;;10.20;99.90;;;;;;5111549;28;20066;-53
2022/09/30 01:41:21;;;;;;;13.00;10.98;;;10.20;99.90;;;;;;5121994;27;20047;-56
2022/09/30 01:44:05;;;;;;;11.38;9.07;;;10.20;99.90;;;;;;5120309;27;20047;-54
2022/09/30 01:46:43;;;;;;;9.10;8.30;;;10.20;99.90;;;;;;5129587;27;20049;-52
2022/09/30 01:49:37;;;;;;;10.25;9.35;;;10.20;99.90;;;;;;5111284;28;20118;-55
2022/09/30 01:52:19;;;;;;;9.90;9.10;;;10.10;99.90;;;;;;5128244;27;20043;-53
2022/09/30 01:54:47;;;;;;;8.27;7.55;;;10.10;99.90;;;;;;5132484;27;20449;-54
2022/09/30 01:57:26;;;;;;;8.93;8.13;;;10.00;99.90;;;;;;5128349;27;20120;-54
2022/09/30 02:00:05;;;;;;;9.93;8.98;;;9.90;99.90;;;;;;5120968;27;20035;-54
2022/09/30 02:02:35;;;;;;;8.02;7.43;;;10.00;99.90;;;;;;5131741;27;20047;-54
2022/09/30 02:05:08;;;;;;;8.73;7.95;;;9.90;99.90;;;;;;5132388;27;20116;-54
2022/09/30 02:08:03;;;;;;;8.85;8.15;;;9.90;99.90;;;;;;5131479;27;20039;-53
2022/09/30 02:10:44;;;;;;;8.43;6.97;;;9.90;99.90;;;;;;5142515;27;20603;-52
2022/09/30 02:13:19;;;;;;;98.40;11.38;;;9.70;99.90;;;;;;5152067;27;20058;-56
2022/09/30 02:15:53;;;;;;;5.82;5.28;;;9.60;99.90;;;;;;5150512;27;20117;-53
2022/09/30 02:18:38;;;;;;;8.55;7.85;;;9.50;99.90;;;;;;5145925;27;20035;-53
2022/09/30 02:21:05;;;;;;;8.18;7.13;;;9.50;99.90;;;;;;5139204;27;20543;-55
2022/09/30 02:23:34;;;;;;;23.05;8.50;;;9.40;99.90;;;;;;5121137;27;20042;-54
2022/09/30 02:26:19;;;;;;;79.78;9.32;;;9.30;99.90;;;;;;5120949;27;20038;-52
2022/09/30 02:29:03;;;;;;;6.95;6.35;;;9.30;99.90;;;;;;5125252;27;20137;-54
2022/09/30 02:31:33;;;;;;;7.30;5.38;;;9.20;99.90;;;;;;5126200;27;20449;-54
2022/09/30 02:34:04;;;;;;;5.03;4.63;;;9.10;99.90;;;;;;5131033;27;20042;-52
2022/09/30 02:37:15;;;;;;;5.72;5.35;;;9.10;99.90;;;;;;5132415;27;20050;-52
2022/09/30 02:40:05;;;;;;;6.18;5.78;;;9.00;99.90;;;;;;5076506;28;20079;-56
2022/09/30 02:42:31;;;;;;;6.25;5.65;;;8.90;99.90;;;;;;5138938;27;20053;-52
2022/09/30 02:45:02;;;;;;;5.22;4.85;;;8.90;99.90;;;;;;5110203;28;20396;-55
2022/09/30 02:47:50;;;;;;;8.27;7.05;;;9.00;99.90;;;;;;5125154;27;20488;-54
2022/09/30 02:50:22;;;;;;;6.32;5.80;;;9.00;99.90;;;;;;5124617;28;20086;-54
2022/09/30 02:53:07;;;;;;;4.82;4.53;;;9.00;99.90;;;;;;5128664;27;20035;-54
2022/09/30 02:56:00;;;;;;;4.07;3.78;;;9.00;99.90;;;;;;5112755;28;20043;-55
2022/09/30 02:58:26;;;;;;;4.60;3.28;;;8.90;99.90;;;;;;5131819;27;20365;-52
2022/09/30 03:00:53;;;;;;;6.40;4.20;;;8.80;99.90;;;;;;5124779;28;20035;-55
2022/09/30 03:03:24;;;;;;;4.60;4.30;;;8.70;99.90;;;;;;5115820;27;20445;-56
2022/09/30 03:05:50;;;;;;;3.63;3.10;;;8.60;99.90;;;;;;5117329;28;20092;-53
2022/09/30 03:08:16;;;;;;;3.53;3.33;;;8.60;99.90;;;;;;5092230;27;20536;-52
2022/09/30 03:10:42;;;;;;;3.75;3.45;;;8.60;99.90;;;;;;5130805;27;20122;-53
2022/09/30 03:13:14;;;;;;;;;;;8.60;99.90;;;;;;5111453;28;20496;-54
2022/09/30 03:16:06;;;;;;;12.88;4.50;;;8.60;99.90;;;;;;5107397;28;19973;-53
2022/09/30 03:18:31;;;;;;;5.95;5.45;;;8.50;99.90;;;;;;5130857;27;20492;-52
2022/09/30 03:20:59;;;;;;;3.63;3.43;;;8.40;99.90;;;;;;5131553;27;20043;-53
2022/09/30 03:23:44;;;;;;;5.95;5.35;;;8.40;99.90;;;;;;5127181;27;20075;-54
2022/09/30 03:26:50;;;;;;;6.68;6.18;;;8.30;99.90;;;;;;5109976;28;20036;-53
2022/09/30 03:29:22;;;;;;;6.22;5.72;;;8.30;99.90;;;;;;5111618;27;20088;-53
2022/09/30 03:32:03;;;;;;;8.40;7.57;;;8.30;99.90;;;;;;5134674;27;20114;-53
2022/09/30 03:34:58;;;;;;;5.28;4.88;;;8.40;99.90;;;;;;5133163;27;20114;-52
2022/09/30 03:37:49;;;;;;;3.70;3.50;;;8.30;99.90;;;;;;5134442;27;20483;-54
2022/09/30 03:40:29;;;;;;;2.38;2.28;;;8.30;99.90;;;;;;5134922;27;20047;-53
2022/09/30 03:43:07;;;;;;;177.35;13.27;;;8.20;99.90;;;;;;5141050;27;20413;-52
2022/09/30 03:45:48;;;;;;;4.20;3.80;;;8.10;99.90;;;;;;5114332;28;20086;-54
2022/09/30 03:48:15;;;;;;;3.90;3.70;;;8.10;99.90;;;;;;5113484;28;20427;-53
2022/09/30 03:50:41;;;;;;;6.53;6.00;;;8.00;99.90;;;;;;5116206;27;20118;-53
2022/09/30 03:53:09;;;;;;;;;;;8.00;99.90;;;;;;5151529;27;20042;-52
2022/09/30 03:55:49;;;;;;;6.30;5.80;;;8.00;99.90;;;;;;5116070;27;19915;-53
2022/09/30 03:58:18;;;;;;;7.72;5.25;;;8.00;99.90;;;;;;5095796;28;20051;-54
2022/09/30 04:00:49;;;;;;;6.65;6.15;;;7.90;99.90;;;;;;5113124;28;20128;-53
2022/09/30 04:03:16;;;;;;;5.53;5.13;;;7.80;99.90;;;;;;5113504;27;20050;-52
2022/09/30 04:05:41;;;;;;;5.47;5.07;;;7.70;99.90;;;;;;5119664;27;20385;-55
2022/09/30 04:08:08;;;;;;;5.35;4.95;;;7.70;99.90;;;;;;5118001;27;20083;-55
2022/09/30 04:10:34;;;;;;;4.68;4.38;;;7.70;99.90;;;;;;5133562;27;20286;-55
2022/09/30 04:12:59;;;;;;;4.60;4.22;;;7.70;99.90;;;;;;5129650;27;20032;-54
2022/09/30 04:15:26;;;;;;;4.30;4.03;;;7.70;99.90;;;;;;5113216;28;20047;-55
2022/09/30 04:17:52;;;;;;;4.97;4.60;;;7.70;99.90;;;;;;5121333;27;20092;-54
2022/09/30 04:20:17;;;;;;;5.85;5.45;;;7.60;99.90;;;;;;5132073;27;20035;-54
2022/09/30 04:22:43;;;;;;;5.53;5.13;;;7.60;99.90;;;;;;5134554;27;20548;-53
2022/09/30 04:25:09;;;;;;;6.57;6.00;;;7.70;99.90;;;;;;5133334;27;20057;-54
2022/09/30 04:27:34;;;;;;;6.80;6.13;;;7.70;99.90;;;;;;5133048;27;20035;-52
2022/09/30 04:30:00;;;;;;;5.50;5.10;;;7.70;99.90;;;;;;5132756;27;20500;-54
2022/09/30 04:32:27;;;;;;;3.70;3.47;;;7.70;99.90;;;;;;5133008;27;20382;-53
2022/09/30 04:34:53;;;;;;;4.03;3.78;;;7.60;99.90;;;;;;5134336;27;20111;-55
2022/09/30 04:37:20;;;;;;;3.85;3.55;;;7.50;99.90;;;;;;5132507;27;20285;-52
2022/09/30 04:39:45;;;;;;;3.60;3.40;;;7.50;99.90;;;;;;5136419;27;20036;-54
2022/09/30 04:42:11;;;;;;;3.77;3.57;;;7.40;99.90;;;;;;5112210;27;20496;-55
2022/09/30 04:44:36;;;;;;;3.73;3.53;;;7.40;99.90;;;;;;5125853;27;20051;-54
2022/09/30 04:47:02;;;;;;;2.40;2.30;;;7.40;99.90;;;;;;5133172;27;20031;-52
2022/09/30 04:49:28;;;;;;;4.65;4.32;;;7.40;99.90;;;;;;5128809;27;20031;-53
2022/09/30 04:51:54;;;;;;;3.80;3.53;;;7.30;99.90;;;;;;5112757;28;20046;-56
2022/09/30 04:54:19;;;;;;;3.65;3.35;;;7.30;99.90;;;;;;5123505;27;20042;-52
2022/09/30 04:56:45;;;;;;;5.23;4.67;;;7.20;99.90;;;;;;5132689;27;20039;-54
2022/09/30 04:59:10;;;;;;;5.30;4.90;;;7.30;99.90;;;;;;5136940;27;20053;-52
2022/09/30 05:01:36;;;;;;;6.00;5.47;;;7.20;99.90;;;;;;5094538;28;20511;-53
2022/09/30 05:04:02;;;;;;;19.67;6.67;;;7.20;99.90;;;;;;5128413;27;20330;-56
2022/09/30 05:06:27;;;;;;;4.95;4.57;;;7.10;99.90;;;;;;5151058;27;20526;-52
2022/09/30 05:08:53;;;;;;;4.17;3.87;;;7.10;99.90;;;;;;5152605;27;20034;-53
2022/09/30 05:11:20;;;;;;;5.80;4.80;;;7.00;99.90;;;;;;5138172;27;20277;-52
2022/09/30 05:13:47;;;;;;;8.07;7.43;;;7.00;99.90;;;;;;5132306;27;20581;-55
2022/09/30 05:16:13;;;;;;;10.05;6.18;;;7.00;99.90;;;;;;5133866;27;20039;-53
2022/09/30 05:18:41;;;;;;;;;;;7.00;99.90;;;;;;5133296;27;20433;-53
2022/09/30 05:21:07;;;;;;;3.97;3.60;;;7.00;99.90;;;;;;5132760;27;19916;-54
2022/09/30 05:23:33;;;;;;;15.45;4.15;;;7.00;99.90;;;;;;5132030;27;20042;-54
2022/09/30 05:26:00;;;;;;;153.73;10.15;;;7.00;99.90;;;;;;5132999;27;20032;-54
2022/09/30 05:28:25;;;;;;;94.47;7.57;;;7.00;99.90;;;;;;5132457;27;20046;-56
2022/09/30 05:30:59;;;;;;;21.37;5.67;;;6.80;99.90;;;;;;5127791;27;20023;-55
2022/09/30 05:33:25;;;;;;;34.67;6.00;;;6.80;99.90;;;;;;5111270;28;20054;-54
2022/09/30 05:35:51;;;;;;;;;;;6.80;99.90;;;;;;5119556;27;20038;-54
2022/09/30 05:38:16;;;;;;;15.43;5.50;;;6.70;99.90;;;;;;5114969;27;19915;-54
2022/09/30 05:40:42;;;;;;;4.70;4.40;;;6.60;99.90;;;;;;5121726;27;20042;-56
2022/09/30 05:43:08;;;;;;;4.03;3.83;;;6.60;99.90;;;;;;5111713;28;20480;-55
2022/09/30 05:45:34;;;;;;;5.28;4.97;;;6.70;99.90;;;;;;5113266;27;20031;-51
2022/09/30 05:48:00;;;;;;;7.17;6.47;;;6.70;99.90;;;;;;5132236;27;20031;-51
2022/09/30 05:50:26;;;;;;;7.05;6.20;;;6.80;99.90;;;;;;5117428;27;20132;-52
2022/09/30 05:52:52;;;;;;;9.13;5.22;;;6.90;99.90;;;;;;5116440;27;20118;-55
2022/09/30 05:55:19;;;;;;;7.13;6.53;;;7.10;99.90;;;;;;5120793;27;20085;-53
2022/09/30 05:57:49;;;;;;;5.68;5.28;;;7.30;99.90;;;;;;5137610;27;20047;-52
2022/09/30 06:00:16;;;;;;;6.55;4.97;;;7.60;99.90;;;;;;5125705;27;20073;-52
2022/09/30 06:02:42;;;;;;;;;;;7.90;99.90;;;;;;5133067;27;20027;-55
2022/09/30 06:05:08;;;;;;;5.93;5.43;;;8.20;99.90;;;;;;5129910;27;20292;-52
2022/09/30 06:07:38;;;;;;;6.53;5.93;;;8.50;99.90;;;;;;5111947;27;20089;-55
2022/09/30 06:10:06;;;;;;;6.38;5.65;;;8.90;99.90;;;;;;5111051;28;20035;-54
2022/09/30 06:12:32;;;;;;;5.65;5.13;;;9.30;99.90;;;;;;5111140;28;20036;-54
2022/09/30 06:14:58;;;;;;;10.90;10.20;;;9.70;99.90;;;;;;5113740;27;20042;-52
2022/09/30 06:17:23;;;;;;;8.13;7.60;;;9.90;99.90;;;;;;5131021;27;20035;-53
2022/09/30 06:19:49;;;;;;;7.43;6.83;;;10.20;99.90;;;;;;5125046;27;20043;-54
2022/09/30 06:22:16;;;;;;;8.18;6.97;;;10.50;99.90;;;;;;5130195;27;20049;-54
2022/09/30 06:24:41;;;;;;;8.32;5.97;;;10.80;99.90;;;;;;5136820;27;20490;-55
2022/09/30 06:27:07;;;;;;;5.47;4.80;;;11.10;99.90;;;;;;5111050;28;20114;-53
2022/09/30 06:29:33;;;;;;;5.90;5.50;;;11.50;99.90;;;;;;5137726;27;20037;-52
2022/09/30 06:31:58;;;;;;;5.70;5.30;;;11.80;99.90;;;;;;5144159;27;20035;-53
2022/09/30 06:34:24;;;;;;;4.93;3.83;;;12.10;99.90;;;;;;5126409;27;20043;-55
2022/09/30 06:36:49;;;;;;;4.40;4.00;;;12.40;99.90;;;;;;5121361;27;20046;-49
2022/09/30 06:39:15;;;;;;;5.70;4.53;;;12.70;99.90;;;;;;5116835;27;20045;-52
2022/09/30 06:41:42;;;;;;;9.90;4.23;;;12.90;99.90;;;;;;5132046;27;20126;-50
2022/09/30 06:44:08;;;;;;;5.22;4.82;;;13.00;99.90;;;;;;5131808;27;20337;-52
2022/09/30 06:46:34;;;;;;;4.57;4.28;;;12.90;99.90;;;;;;5125081;27;20036;-51
2022/09/30 06:49:00;;;;;;;7.72;5.20;;;12.60;99.90;;;;;;5130977;28;20110;-53
2022/09/30 06:51:26;;;;;;;5.78;5.25;;;12.30;99.90;;;;;;5123683;28;20027;-51
2022/09/30 06:53:53;;;;;;;10.68;7.53;;;12.00;99.90;;;;;;5108388;28;20035;-53
2022/09/30 06:56:19;;;;;;;9.63;7.55;;;11.80;99.90;;;;;;5146539;27;20548;-53
2022/09/30 06:58:45;;;;;;;9.20;8.40;;;11.70;99.90;;;;;;5110201;28;20035;-54
2022/09/30 07:01:14;;;;;;;;;;;11.50;99.90;;;;;;5128382;27;20039;-52
2022/09/30 07:03:42;;;;;;;9.95;8.15;;;11.30;99.90;;;;;;5143754;27;19926;-54
2022/09/30 07:06:07;;;;;;;10.65;8.68;;;11.10;99.90;;;;;;5143939;27;20089;-56
2022/09/30 07:08:35;;;;;;;11.67;10.47;;;11.00;99.90;;;;;;5129690;27;20027;-53
2022/09/30 07:11:03;;;;;;;11.88;10.55;;;10.90;99.90;;;;;;5130444;27;20646;-53
2022/09/30 07:13:29;;;;;;;12.80;11.60;;;10.90;99.90;;;;;;5143530;27;20491;-53
2022/09/30 07:15:55;;;;;;;14.02;12.02;;;10.80;99.90;;;;;;5137209;27;20043;-55
2022/09/30 07:18:22;;;;;;;13.95;12.55;;;10.70;99.90;;;;;;5139856;27;20039;-52
2022/09/30 07:20:52;;;;;;;15.23;13.15;;;10.50;99.90;;;;;;5145369;27;20054;-52
2022/09/30 07:23:18;;;;;;;19.45;13.57;;;10.40;99.90;;;;;;5131914;27;20035;-54
2022/09/30 07:26:01;;;;;;;17.35;15.70;;;10.30;99.90;;;;;;5127602;27;20407;-54
2022/09/30 07:28:30;;;;;;;19.65;16.30;;;10.40;99.90;;;;;;5132558;27;20143;-53
2022/09/30 07:30:57;;;;;;;17.63;15.85;;;10.40;99.90;;;;;;5121017;27;20517;-54
2022/09/30 07:33:25;;;;;;;16.67;14.88;;;10.40;99.90;;;;;;5125059;27;20050;-53
2022/09/30 07:35:55;;;;;;;15.25;13.82;;;10.50;99.90;;;;;;5102197;27;20048;-54
2022/09/30 07:38:23;;;;;;;15.48;13.85;;;10.60;99.90;;;;;;5123460;27;20539;-55
2022/09/30 07:40:53;;;;;;;13.57;12.18;;;10.70;99.90;;;;;;5117000;27;20521;-54
2022/09/30 07:43:19;;;;;;;13.88;12.57;;;10.80;99.90;;;;;;5118043;27;20060;-55
2022/09/30 07:45:45;;;;;;;13.02;11.68;;;10.80;99.90;;;;;;5117671;27;20035;-56
2022/09/30 07:48:39;;;;;;;11.52;10.30;;;10.90;99.90;;;;;;5119479;27;20036;-56
2022/09/30 07:50:57;;;;;;;11.45;10.40;;;11.00;99.90;;;;;;5117006;27;20032;-54
2022/09/30 07:53:23;;;;;;;11.32;9.27;;;11.10;99.90;;;;;;5118517;27;20116;-54
2022/09/30 07:55:48;;;;;;;10.40;9.50;;;11.10;99.90;;;;;;5112204;27;20492;-54
2022/09/30 07:58:14;;;;;;;10.33;9.33;;;11.20;99.90;;;;;;5112298;27;20035;-55
2022/09/30 08:00:40;;;;;;;9.00;8.10;;;11.30;99.90;;;;;;5097903;27;20409;-52
2022/09/30 08:03:05;;;;;;;8.90;8.00;;;11.30;99.90;;;;;;5121848;27;20289;-53
2022/09/30 08:05:31;;;;;;;8.80;8.00;;;11.30;99.90;;;;;;5118230;27;20472;-53
2022/09/30 08:07:56;;;;;;;10.40;8.10;;;11.40;99.90;;;;;;5115999;27;20032;-55
2022/09/30 08:10:22;;;;;;;8.47;7.67;;;11.50;99.90;;;;;;5114969;27;20450;-52
2022/09/30 08:12:47;;;;;;;8.67;7.20;;;11.50;99.90;;;;;;5111590;27;20104;-54
2022/09/30 08:15:13;;;;;;;8.30;6.40;;;11.60;99.90;;;;;;5114968;27;20785;-55
2022/09/30 08:17:38;;;;;;;8.10;7.40;;;11.70;99.90;;;;;;5118675;27;20058;-52
2022/09/30 08:20:04;;;;;;;8.10;7.40;;;11.80;99.90;;;;;;5124029;27;20281;-53
2022/09/30 08:22:30;;;;;;;8.20;7.45;;;11.90;99.90;;;;;;5145224;27;20384;-53
2022/09/30 08:24:55;;;;;;;9.73;8.17;;;12.00;99.90;;;;;;5151784;27;20031;-54
2022/09/30 08:27:21;;;;;;;10.03;9.13;;;12.10;99.90;;;;;;5129451;27;20031;-52
2022/09/30 08:29:47;;;;;;;9.57;7.47;;;12.20;99.90;;;;;;5140517;27;20031;-52
2022/09/30 08:32:12;;;;;;;8.37;7.60;;;12.30;99.90;;;;;;5148931;27;20462;-56
2022/09/30 08:34:38;;;;;;;8.30;7.50;;;12.40;99.90;;;;;;5153948;27;20122;-53
2022/09/30 08:37:03;;;;;;;10.13;9.17;;;12.40;99.90;;;;;;5115120;27;20039;-57
2022/09/30 08:39:29;;;;;;;11.75;8.30;;;12.50;99.90;;;;;;5112739;27;20488;-55
2022/09/30 08:42:28;;;;;;;9.63;8.82;;;12.60;99.90;;;;;;5113190;27;20035;-56
2022/09/30 08:45:14;;;;;;;10.95;9.45;;;12.70;99.90;;;;;;5086435;27;20043;-54
2022/09/30 08:47:52;;;;;;;9.43;8.45;;;12.80;99.90;;;;;;5112442;28;20631;-55
2022/09/30 08:50:17;;;;;;;9.82;8.30;;;12.90;99.90;;;;;;5139051;27;20107;-52
2022/09/30 08:52:52;;;;;;;8.70;7.87;;;13.00;99.90;;;;;;5131878;27;20047;-55
2022/09/30 08:55:22;;;;;;;9.55;8.65;;;13.00;99.90;;;;;;5133535;27;20425;-55
2022/09/30 08:57:49;;;;;;;10.40;8.27;;;13.10;99.90;;;;;;5132679;27;20396;-53
2022/09/30 09:00:17;;;;;;;9.35;8.18;;;13.20;99.90;;;;;;5133014;27;20047;-53
2022/09/30 09:02:48;;;;;;;7.85;7.18;;;13.30;99.90;;;;;;5130595;27;20043;-55
2022/09/30 09:06:06;;;;;;;10.25;8.05;;;13.40;99.90;;;;;;5111222;27;20039;-55
2022/09/30 09:08:50;;;;;;;9.13;8.18;;;13.40;99.90;;;;;;5119331;27;20046;-49
2022/09/30 09:11:52;;;;;;;10.00;8.57;;;13.50;99.90;;;;;;5134068;27;20224;-53
2022/09/30 09:14:52;;;;;;;7.72;6.93;;;13.70;99.90;;;;;;5130898;27;20046;-52
2022/09/30 09:17:43;;;;;;;8.10;7.30;;;13.90;99.90;;;;;;5133124;27;20047;-53
2022/09/30 09:20:13;;;;;;;10.38;8.18;;;14.00;99.90;;;;;;5131907;27;20031;-52
2022/09/30 09:22:39;;;;;;;19.95;14.57;;;14.10;99.90;;;;;;5130880;27;20050;-52
2022/09/30 09:25:05;;;;;;;11.07;7.68;;;14.20;99.90;;;;;;5131494;27;20043;-53
2022/09/30 09:27:55;;;;;;;10.88;9.40;;;14.30;99.90;;;;;;5119080;27;20035;-52
2022/09/30 09:30:22;;;;;;;9.65;8.73;;;14.30;99.90;;;;;;5111891;28;20083;-52
2022/09/30 09:32:55;;;;;;;11.48;9.10;;;14.30;99.90;;;;;;5109701;27;20039;-55
2022/09/30 09:35:33;;;;;;;10.40;9.40;;;14.30;99.90;;;;;;5149078;27;20692;-54
2022/09/30 09:38:54;;;;;;;11.80;10.70;;;14.40;99.90;;;;;;5114651;27;20035;-53
2022/09/30 09:41:38;;;;;;;9.90;9.00;;;14.50;99.90;;;;;;5028036;28;20053;-55
2022/09/30 09:44:24;;;;;;;10.40;9.35;;;14.70;99.90;;;;;;5016840;28;20053;-54
2022/09/30 09:47:04;;;;;;;13.70;11.52;;;14.70;99.90;;;;;;5023319;28;20037;-56
2022/09/30 09:49:29;;;;;;;11.60;9.75;;;14.80;99.90;;;;;;5041468;28;20040;-52
2022/09/30 09:51:58;;;;;;;11.43;9.70;;;14.80;99.90;;;;;;5028934;28;20438;-52
2022/09/30 09:54:28;;;;;;;13.18;11.70;;;14.80;99.90;;;;;;5022021;28;20324;-54
2022/09/30 09:56:53;;;;;;;13.07;11.77;;;14.90;99.90;;;;;;5014235;28;20429;-53
2022/09/30 09:59:20;;;;;;;13.15;11.95;;;15.00;99.90;;;;;;5030234;28;20037;-52
2022/09/30 10:01:52;;;;;;;14.32;13.00;;;15.10;99.90;;;;;;5014992;28;20041;-52
2022/09/30 10:04:19;;;;;;;14.30;12.93;;;15.20;99.90;;;;;;5047245;28;20056;-52
2022/09/30 10:06:54;;;;;;;13.43;12.13;;;15.30;99.90;;;;;;5044629;28;20041;-53
2022/09/30 10:09:41;;;;;;;15.98;12.95;;;15.30;99.90;;;;;;5031855;28;20395;-53
2022/09/30 10:12:07;;;;;;;15.00;13.48;;;15.50;99.90;;;;;;5027962;28;20052;-52
2022/09/30 10:14:33;;;;;;;13.98;11.50;;;15.60;99.90;;;;;;5025993;28;20037;-52
2022/09/30 10:16:59;;;;;;;;;;;15.60;99.90;;;;;;5112413;27;20069;-53
2022/09/30 10:19:27;;;;;;;17.58;13.25;;;15.70;99.90;;;;;;5152127;27;19915;-53
2022/09/30 10:22:08;;;;;;;15.05;11.77;;;15.80;99.90;;;;;;5134332;27;20043;-52
2022/09/30 10:24:36;;;;;;;16.08;12.57;;;15.80;99.90;;;;;;5131951;27;20384;-52
2022/09/30 10:27:02;;;;;;;17.65;13.07;;;15.90;99.90;;;;;;5140279;27;20080;-52
2022/09/30 10:29:33;;;;;;;13.32;11.93;;;16.00;99.90;;;;;;5137300;27;20414;-53
2022/09/30 10:32:01;;;;;;;12.85;11.48;;;15.90;99.90;;;;;;5136031;27;20043;-52
2022/09/30 10:34:39;;;;;;;13.27;11.70;;;15.80;99.40;;;;;;5107101;28;20077;-53
2022/09/30 10:37:13;;;;;;;13.73;11.93;;;15.80;99.90;;;;;;5123542;27;20043;-53
2022/09/30 10:39:42;;;;;;;15.20;10.80;;;15.90;99.90;;;;;;5132147;27;20118;-52
2022/09/30 10:42:22;;;;;;;16.83;12.18;;;16.10;99.90;;;;;;5130110;27;20050;-54
2022/09/30 10:45:02;;;;;;;12.15;10.95;;;16.20;99.70;;;;;;5130505;27;20035;-53
2022/09/30 10:47:29;;;;;;;12.88;11.45;;;16.30;99.90;;;;;;5131851;27;20492;-54
2022/09/30 10:50:05;;;;;;;14.00;11.32;;;16.40;99.90;;;;;;5132169;27;20421;-54
2022/09/30 10:52:35;;;;;;;12.90;11.57;;;16.30;99.20;;;;;;5111655;28;20499;-52
2022/09/30 10:55:18;;;;;;;12.15;10.95;;;16.30;99.40;;;;;;5130473;28;20121;-52
2022/09/30 10:57:45;;;;;;;13.05;11.65;;;16.30;99.20;;;;;;5132234;27;20039;-52
2022/09/30 11:00:24;;;;;;;18.15;12.98;;;16.30;99.40;;;;;;5145505;27;20171;-54
2022/09/30 11:03:09;;;;;;;14.27;12.77;;;16.40;99.20;;;;;;5135304;27;20044;-55
2022/09/30 11:05:39;;;;;;;15.77;14.18;;;16.50;99.10;;;;;;5118918;28;20083;-55
2022/09/30 11:08:21;;;;;;;17.33;14.80;;;16.50;99.00;;;;;;5127296;27;20035;-53
2022/09/30 11:11:13;;;;;;;15.68;14.10;;;16.50;99.00;;;;;;5142877;27;20069;-53
2022/09/30 11:13:56;;;;;;;15.43;13.90;;;16.50;98.70;;;;;;5138273;27;20448;-53
2022/09/30 11:16:48;;;;;;;16.67;14.77;;;16.50;99.00;;;;;;5132512;27;20035;-52
2022/09/30 11:19:20;;;;;;;22.38;15.73;;;16.50;99.20;;;;;;5135531;27;20053;-54
2022/09/30 11:21:55;;;;;;;18.52;16.42;;;16.60;99.10;;;;;;5123479;28;20496;-52
2022/09/30 11:24:38;;;;;;;17.17;15.52;;;16.60;98.90;;;;;;5125508;27;20143;-53
2022/09/30 11:27:11;;;;;;;19.60;17.05;;;16.60;98.50;;;;;;5109948;28;20429;-53
2022/09/30 11:29:42;;;;;;;16.83;15.23;;;16.60;98.60;;;;;;5116228;28;20054;-53
2022/09/30 11:32:47;;;;;;;14.50;13.10;;;16.70;98.80;;;;;;5123276;28;20118;-53
2022/09/30 11:35:47;;;;;;;18.25;16.00;;;16.70;98.30;;;;;;5109715;28;20074;-55
2022/09/30 11:38:32;;;;;;;15.73;14.13;;;16.70;97.50;;;;;;5113161;27;20047;-56
2022/09/30 11:41:08;;;;;;;37.85;17.85;;;16.60;97.70;;;;;;5130487;28;20096;-57
2022/09/30 11:43:46;;;;;;;17.65;15.82;;;16.50;97.80;;;;;;5129410;28;20114;-52
2022/09/30 11:46:31;;;;;;;24.45;16.83;;;16.60;98.20;;;;;;5122825;27;20400;-53
2022/09/30 11:49:14;;;;;;;20.35;15.80;;;16.80;98.40;;;;;;5113415;27;20043;-53
2022/09/30 11:52:07;;;;;;;18.00;15.40;;;16.90;98.00;;;;;;5133481;27;20074;-54
2022/09/30 11:54:45;;;;;;;26.52;17.98;;;16.90;97.50;;;;;;5114656;27;20047;-52
2022/09/30 11:57:26;;;;;;;38.10;21.08;;;16.90;97.50;;;;;;5117882;27;20050;-54
2022/09/30 11:59:58;;;;;;;18.58;16.42;;;17.00;97.90;;;;;;5118405;27;20035;-53
2022/09/30 12:02:36;;;;;;;16.83;14.32;;;17.10;98.20;;;;;;5143058;27;20384;-52
2022/09/30 12:05:16;;;;;;;16.70;14.85;;;17.20;97.00;;;;;;5154244;27;20034;-53
2022/09/30 12:07:44;;;;;;;14.10;12.50;;;17.10;96.80;;;;;;5104347;27;20046;-53
2022/09/30 12:10:24;;;;;;;14.88;13.27;;;17.00;96.50;;;;;;5141027;27;20061;-53
2022/09/30 12:13:00;;;;;;;21.80;13.50;;;17.00;96.20;;;;;;5154444;27;20574;-54
2022/09/30 12:15:26;;;;;;;14.77;12.02;;;17.00;96.40;;;;;;5150211;27;20083;-53
2022/09/30 12:17:59;;;;;;;13.02;11.73;;;17.00;96.00;;;;;;5146282;27;20043;-52
2022/09/30 12:20:42;;;;;;;14.63;11.05;;;17.10;95.60;;;;;;5134932;27;20046;-54
2022/09/30 12:23:27;;;;;;;12.27;10.55;;;17.10;95.70;;;;;;5138204;27;20039;-53
2022/09/30 12:25:58;;;;;;;15.88;11.73;;;17.10;94.50;;;;;;5151348;27;20039;-52
2022/09/30 12:31:11;;;;;;;;;;;17.10;95.30;;;;;;5128369;27;20047;-52
2022/09/30 12:34:13;;;;;;;13.98;12.50;;;17.10;95.60;;;;;;5134123;27;19919;-52
2022/09/30 12:36:53;;;;;;;11.55;10.45;;;17.20;95.60;;;;;;5152393;27;20050;-53
2022/09/30 12:39:34;;;;;;;11.40;10.20;;;17.10;95.60;;;;;;5130495;27;20510;-54
2022/09/30 12:42:32;;;;;;;13.02;11.15;;;17.10;94.70;;;;;;5124998;27;20108;-52
2022/09/30 12:45:31;;;;;;;13.85;12.27;;;17.00;94.00;;;;;;5112292;28;20059;-54
2022/09/30 12:47:59;;;;;;;11.73;10.52;;;17.00;95.00;;;;;;5114553;27;20097;-53
2022/09/30 12:50:33;;;;;;;13.25;10.93;;;17.10;94.50;;;;;;5121788;27;20499;-54
2022/09/30 12:53:14;;;;;;;13.57;10.15;;;17.10;94.60;;;;;;5120464;27;20059;-52
2022/09/30 12:55:41;;;;;;;15.00;13.60;;;17.20;95.10;;;;;;5132706;27;20523;-53
2022/09/30 12:58:28;;;;;;;14.63;13.10;;;17.30;95.10;;;;;;5132018;27;20061;-54
2022/09/30 13:01:21;;;;;;;11.80;10.77;;;17.30;94.90;;;;;;5120914;27;20035;-55
2022/09/30 13:03:58;;;;;;;12.35;11.23;;;17.30;94.30;;;;;;5116017;27;20047;-54
2022/09/30 13:06:25;;;;;;;13.32;12.10;;;17.20;94.30;;;;;;5144985;27;20035;-53
2022/09/30 13:09:10;;;;;;;13.32;12.02;;;17.10;94.40;;;;;;5141482;27;20533;-52
2022/09/30 13:12:03;;;;;;;13.45;11.98;;;17.10;94.20;;;;;;5100602;27;20101;-53
2022/09/30 13:14:38;;;;;;;12.68;11.30;;;17.00;94.50;;;;;;5043546;28;20037;-51
2022/09/30 13:17:06;;;;;;;17.83;12.45;;;17.10;94.40;;;;;;5049267;28;20095;-52